This is the latest recevied weather packets stored in our database for station/object W6ORV. If no packets are shown the sender has not sent any weather packets the latest 10 day(s).
| Time | Temp. | Humidity | Pressure | Rain* | Wind** | Luminosity | Snow |
|---|---|---|---|---|---|---|---|
| 1777837699 | 15.56° C | 64% | 4298.5 hPa | 0 mm | - | 445 W/m² | - |
| 1777837394 | 15° C | 65% | 4298.7 hPa | 0 mm | - | 375 W/m² | - |
| 1777837090 | 15° C | 66% | 4298.9 hPa | 0 mm | - | 344 W/m² | - |
| 1777836787 | 15.56° C | 63% | 4298.7 hPa | 0 mm | - | 340 W/m² | - |
| 1777836483 | 15.56° C | 64% | 4298.8 hPa | 0 mm | - | 387 W/m² | - |
| 1777836178 | 15.56° C | 63% | 4298.8 hPa | 0 mm | - | 467 W/m² | - |
| 1777835875 | 15.56° C | 66% | 4298.7 hPa | 0 mm | - | 347 W/m² | - |
| 1777835572 | 15.56° C | 64% | 4299.1 hPa | 0 mm | - | 393 W/m² | - |
| 1777835268 | 15° C | 64% | 4298.6 hPa | 0 mm | - | 360 W/m² | - |
| 1777834965 | 15° C | 64% | 4298.9 hPa | 0 mm | - | 470 W/m² | - |
| 1777834663 | 14.44° C | 65% | 4299 hPa | 0 mm | - | 379 W/m² | - |
| 1777834358 | 14.44° C | 66% | 4299 hPa | 0 mm | - | 355 W/m² | - |
| 1777834053 | 14.44° C | 66% | 4299.1 hPa | 0 mm | - | 383 W/m² | - |
| 1777833749 | 15° C | 66% | 4299 hPa | 0 mm | - | 417 W/m² | - |
| 1777833446 | 15° C | 65% | 4299 hPa | 0 mm | - | 363 W/m² | - |
| 1777833143 | 14.44° C | 66% | 4299.1 hPa | 0 mm | - | 391 W/m² | - |
| 1777832841 | 15° C | 65% | 4299 hPa | 0 mm | - | 535 W/m² | - |
| 1777832540 | 15° C | 67% | 4299.2 hPa | 0 mm | - | 384 W/m² | - |
| 1777832236 | 13.89° C | 70% | 4298.9 hPa | 0 mm | - | 1006 W/m² | - |
| 1777831933 | 14.44° C | 69% | 4299 hPa | 0 mm | - | 517 W/m² | - |
| 1777831629 | 14.44° C | 70% | 4299.2 hPa | 0 mm | - | 539 W/m² | - |
| 1777831328 | 13.89° C | 70% | 4299.4 hPa | 0 mm | - | 467 W/m² | - |
| 1777831024 | 13.89° C | 71% | 4299.3 hPa | 0 mm | - | 534 W/m² | - |
| 1777830722 | 13.33° C | 74% | 4299.4 hPa | 0 mm | - | 417 W/m² | - |
| 1777830418 | 12.78° C | 75% | 4299.3 hPa | 0 mm | - | 393 W/m² | - |
* Rain latest hour (hover to see other rain measurements)
** Current wind speed in m/s (hover to see current wind gust speed)